ADDS METAR Data INFO
IDs: Format: Raw Decoded Include TAF

Data at: 1113 UTC 21 Feb 2018

KTYS 201453Z VRB03KT 10SM FEW040 SCT250 19/15 A3032 RMK AO2 SLP261 T01940150 51009
KTYS 201353Z 24003KT 10SM FEW035 SCT055 SCT250 17/14 A3032 RMK AO2 SLP261 T01670144
KTYS 201253Z 35003KT 7SM FEW025 SCT100 SCT250 13/13 A3031 RMK AO2 SLP258 T01280128
KTYS 201153Z 00000KT 8SM FEW065 SCT250 12/12 A3030 RMK AO2 SLP254 T01220122 10183 20122 51009
KTYS 201053Z 35003KT 10SM SCT250 13/12 A3030 RMK AO2 SLP254 T01280122
KTYS 200953Z 00000KT 10SM SCT070 BKN250 14/13 A3028 RMK AO2 SLP248 T01390128
KTYS 200853Z 30003KT 10SM FEW250 14/13 A3027 RMK AO2 SLP244 T01440128 52003
KTYS 200753Z 29006KT 10SM FEW065 15/13 A3027 RMK AO2 SLP242 T01500133
KTYS 200653Z 31006KT 10SM FEW250 15/12 A3026 RMK AO2 SLP241 T01500122
KTYS 200553Z 19003KT 10SM FEW060 FEW250 17/12 A3026 RMK AO2 SLP240 T01720122 10194 20172 51003
KTYS 200453Z 18005KT 10SM FEW065 FEW120 BKN250 18/12 A3026 RMK AO2 SLP241 T01780122 402390100
KTYS 200353Z 16006KT 10SM BKN070 OVC250 18/12 A3026 RMK AO2 SLP240 T01830122
KTYS 200253Z 20005KT 10SM FEW070 FEW150 BKN250 18/12 A3025 RMK AO2 SLP238 T01780122 51008
KTYS 200153Z 21006KT 10SM OVC070 19/12 A3025 RMK AO2 SLP238 T01890122
KTYS 200053Z 21006KT 10SM BKN070 OVC250 19/12 A3024 RMK AO2 SLP236 T01890122
KTYS 192353Z 23008KT 10SM BKN070 OVC250 19/13 A3023 RMK AO2 SLP231 T01940128 10239 20189 53006